createdAt,value
2023-02-22T00:01:33.337Z,99820.50
2023-02-22T00:03:59.802Z,99824.72
2023-02-22T00:06:26.203Z,99816.00
2023-02-22T00:08:53.040Z,99822.97
2023-02-22T00:11:20.544Z,99824.72
2023-02-22T00:13:47.500Z,99816.81
2023-02-22T00:16:19.129Z,99816.81
2023-02-22T00:18:46.036Z,99810.53
2023-02-22T00:21:14.735Z,99812.34
2023-02-22T00:23:46.454Z,99800.09
2023-02-22T00:26:18.326Z,99803.56
2023-02-22T00:28:51.180Z,99805.38
2023-02-22T00:31:18.929Z,99804.44
2023-02-22T00:33:45.851Z,99799.16
2023-02-22T00:36:13.858Z,99799.16
2023-02-22T00:38:41.660Z,99789.56
2023-02-22T00:41:09.276Z,99790.41
2023-02-22T00:43:36.036Z,99796.63
2023-02-22T00:46:02.628Z,99788.63
2023-02-22T00:48:29.336Z,99780.81
2023-02-22T00:50:55.987Z,99787.75
2023-02-22T00:53:25.051Z,99780.88
2023-02-22T00:55:52.037Z,99780.06
2023-02-22T00:58:18.636Z,99777.50
2023-02-22T01:00:45.635Z,99779.19
2023-02-22T01:03:14.809Z,99767.06
2023-02-22T01:05:41.400Z,99775.78
2023-02-22T01:08:10.248Z,99765.38
2023-02-22T01:10:38.406Z,99769.69
2023-02-22T01:13:08.500Z,99764.50
2023-02-22T01:15:36.868Z,99771.47
2023-02-22T01:18:05.101Z,99767.22
2023-02-22T01:20:32.411Z,99761.09
2023-02-22T01:23:00.768Z,99764.59
2023-02-22T01:25:29.571Z,99756.88
2023-02-22T01:27:57.222Z,99755.94
2023-02-22T01:30:27.591Z,99757.81
2023-02-22T01:32:54.655Z,99744.72
2023-02-22T01:35:27.665Z,99742.19
2023-02-22T01:37:54.000Z,99745.59
2023-02-22T01:40:26.072Z,99744.66
2023-02-22T01:42:57.618Z,99736.81
2023-02-22T01:45:38.730Z,99730.91
2023-02-22T01:48:09.444Z,99722.13
2023-02-22T01:50:40.867Z,99712.63
2023-02-22T01:53:09.636Z,99723.09
2023-02-22T01:55:36.280Z,99717.81
2023-02-22T01:58:05.036Z,99701.44
2023-02-22T02:00:32.199Z,99712.06
2023-02-22T02:03:04.531Z,99707.06
2023-02-22T02:05:34.186Z,99712.34
2023-02-22T02:08:09.624Z,99711.59
2023-02-22T02:10:37.149Z,99707.19
2023-02-22T02:13:03.989Z,99700.09
2023-02-22T02:15:33.606Z,99695.03
2023-02-22T02:18:03.768Z,99699.38
2023-02-22T02:20:50.979Z,99702.19
2023-02-22T02:23:30.698Z,99696.81
2023-02-22T02:26:21.884Z,99705.59
2023-02-22T02:29:09.726Z,99698.59
2023-02-22T02:32:01.206Z,99695.97
2023-02-22T02:34:30.495Z,99688.84
2023-02-22T02:37:12.470Z,99685.34
2023-02-22T02:39:56.976Z,99687.31
2023-02-22T02:42:29.807Z,99678.47
2023-02-22T02:45:13.443Z,99689.97
2023-02-22T02:47:48.775Z,99679.50
2023-02-22T02:50:30.642Z,99683.19
2023-02-22T02:53:01.132Z,99673.28
2023-02-22T02:55:30.338Z,99666.44
2023-02-22T02:57:56.876Z,99664.75
2023-02-22T03:00:28.107Z,99657.03
2023-02-22T03:03:00.507Z,99658.06
2023-02-22T03:06:19.871Z,99661.88
2023-02-22T03:09:04.658Z,99655.88
2023-02-22T03:12:07.776Z,99655.56
2023-02-22T03:14:53.412Z,99651.34
2023-02-22T03:17:32.364Z,99655.16
2023-02-22T03:20:04.957Z,99644.97
2023-02-22T03:22:37.678Z,99643.53
2023-02-22T03:25:10.882Z,99638.63
2023-02-22T03:27:46.374Z,99645.94
2023-02-22T03:30:24.085Z,99642.72
2023-02-22T03:32:56.429Z,99632.56
2023-02-22T03:35:28.287Z,99632.91
2023-02-22T03:37:58.360Z,99632.25
2023-02-22T03:40:33.150Z,99635.13
2023-02-22T03:43:06.388Z,99632.78
2023-02-22T03:45:34.694Z,99637.34
2023-02-22T03:48:17.593Z,99635.06
2023-02-22T03:50:44.308Z,99630.66
2023-02-22T03:53:11.066Z,99620.22
2023-02-22T03:55:37.601Z,99616.66
2023-02-22T03:58:08.565Z,99628.88
2023-02-22T04:00:35.651Z,99613.88
2023-02-22T04:03:02.825Z,99610.28
2023-02-22T04:05:29.309Z,99609.19
2023-02-22T04:07:57.030Z,99612.56
2023-02-22T04:10:24.631Z,99608.00
2023-02-22T04:12:51.269Z,99611.19
2023-02-22T04:15:21.835Z,99605.88
2023-02-22T04:17:48.295Z,99601.19
2023-02-22T04:20:19.737Z,99598.25
2023-02-22T04:22:47.321Z,99600.63
2023-02-22T04:25:14.481Z,99604.00
2023-02-22T04:27:40.862Z,99600.28
2023-02-22T04:30:07.791Z,99598.41
2023-02-22T04:32:34.637Z,99593.81
2023-02-22T04:35:01.144Z,99590.16
2023-02-22T04:37:27.544Z,99593.56
2023-02-22T04:39:54.001Z,99591.66
2023-02-22T04:42:20.491Z,99593.38
2023-02-22T04:44:46.958Z,99591.41
2023-02-22T04:47:13.355Z,99594.88
2023-02-22T04:49:39.752Z,99592.22
2023-02-22T04:52:06.164Z,99600.06
2023-02-22T04:54:32.588Z,99596.53
2023-02-22T04:56:59.052Z,99592.09
2023-02-22T04:59:25.624Z,99590.41
2023-02-22T05:01:52.126Z,99586.81
2023-02-22T05:04:18.673Z,99586.75
2023-02-22T05:06:45.169Z,99586.66
2023-02-22T05:12:58.726Z,99579.50
2023-02-22T05:15:25.615Z,99585.72
2023-02-22T05:17:53.159Z,99587.59
2023-02-22T05:20:32.004Z,99573.75
2023-02-22T05:23:00.330Z,99578.00
2023-02-22T05:25:28.158Z,99573.69
2023-02-22T05:28:00.547Z,99579.03
2023-02-22T05:30:32.676Z,99586.81
2023-02-22T05:32:59.947Z,99576.22
2023-02-22T05:35:28.914Z,99570.94
2023-02-22T05:37:56.146Z,99574.44
2023-02-22T05:40:25.270Z,99575.47
2023-02-22T05:42:52.586Z,99569.34
2023-02-22T05:45:20.892Z,99561.59
2023-02-22T05:47:48.077Z,99566.88
2023-02-22T05:50:15.586Z,99559.91
2023-02-22T05:52:42.602Z,99555.59
2023-02-22T05:55:10.659Z,99564.44
2023-02-22T05:57:37.132Z,99559.19
2023-02-22T06:00:08.166Z,99554.09
2023-02-22T06:02:34.734Z,99549.78
2023-02-22T06:05:01.290Z,99555.13
2023-02-22T06:07:27.775Z,99557.84
2023-02-22T06:09:54.383Z,99557.06
2023-02-22T06:12:20.875Z,99558.00
2023-02-22T06:14:47.378Z,99552.84
2023-02-22T06:17:15.352Z,99556.59
2023-02-22T06:19:41.832Z,99555.75
2023-02-22T06:22:08.589Z,99557.63
2023-02-22T06:24:38.661Z,99565.72
2023-02-22T06:27:05.184Z,99563.25
2023-02-22T06:29:31.627Z,99570.38
2023-02-22T06:31:58.246Z,99571.31
2023-02-22T06:34:24.884Z,99560.94
2023-02-22T06:36:51.478Z,99558.44
2023-02-22T06:39:18.854Z,99555.91
2023-02-22T06:41:47.029Z,99555.13
2023-02-22T06:44:15.209Z,99561.41
2023-02-22T06:46:48.140Z,99560.75
2023-02-22T06:49:14.716Z,99558.94
2023-02-22T06:51:41.347Z,99559.81
2023-02-22T06:54:07.934Z,99561.56
2023-02-22T06:56:34.429Z,99558.13
2023-02-22T06:59:02.835Z,99559.88
2023-02-22T07:01:29.806Z,99556.44
2023-02-22T07:03:56.611Z,99556.44
2023-02-22T07:06:23.276Z,99561.56
2023-02-22T07:08:49.886Z,99556.31
2023-02-22T07:11:18.095Z,99560.66
2023-02-22T07:13:46.538Z,99555.41
2023-02-22T07:16:13.228Z,99554.47
2023-02-22T07:18:39.751Z,99551.84
2023-02-22T07:21:06.282Z,99553.59
2023-02-22T07:23:32.967Z,99546.56
2023-02-22T07:26:03.798Z,99549.28
2023-02-22T07:28:30.369Z,99555.28
2023-02-22T07:30:56.874Z,99552.66
2023-02-22T07:33:23.404Z,99546.56
2023-02-22T07:35:50.866Z,99556.22
2023-02-22T07:38:19.473Z,99544.03
2023-02-22T07:40:46.722Z,99552.66
2023-02-22T07:43:16.295Z,99543.94
2023-02-22T07:45:43.168Z,99542.16
2023-02-22T07:48:10.570Z,99545.63
2023-02-22T07:50:37.076Z,99545.53
2023-02-22T07:53:06.215Z,99547.22
2023-02-22T07:55:34.534Z,99540.94
2023-02-22T07:58:04.817Z,99540.84
2023-02-22T08:00:34.286Z,99537.19
2023-02-22T08:03:02.500Z,99543.97
2023-02-22T08:05:30.376Z,99537.69
2023-02-22T08:07:56.981Z,99534.78
2023-02-22T08:10:24.970Z,99535.44
2023-02-22T08:12:52.821Z,99537.06
2023-02-22T08:15:24.273Z,99528.03
2023-02-22T08:17:51.540Z,99525.16
2023-02-22T08:20:18.184Z,99521.41
2023-02-22T08:22:45.291Z,99526.44
2023-02-22T08:25:13.069Z,99524.44
2023-02-22T08:27:39.598Z,99522.38
2023-02-22T08:30:07.717Z,99520.31
2023-02-22T08:32:35.718Z,99520.03
2023-02-22T08:35:02.832Z,99519.66
2023-02-22T08:37:29.339Z,99514.84
2023-02-22T08:39:56.170Z,99515.41
2023-02-22T08:42:22.760Z,99520.31
2023-02-22T08:44:49.416Z,99512.88
2023-02-22T08:47:15.924Z,99513.31
2023-02-22T08:49:42.481Z,99515.56
2023-02-22T08:52:09.318Z,99509.84
2023-02-22T08:54:35.852Z,99514.78
2023-02-22T08:57:02.423Z,99514.41
2023-02-22T08:59:29.153Z,99508.00
2023-02-22T09:01:55.680Z,99520.88
2023-02-22T09:04:22.284Z,99512.78
2023-02-22T09:06:51.734Z,99508.03
2023-02-22T09:09:21.352Z,99508.69
2023-02-22T09:11:48.660Z,99505.84
2023-02-22T09:14:16.530Z,99495.84
2023-02-22T09:16:45.452Z,99501.66
2023-02-22T09:19:12.395Z,99489.88
2023-02-22T09:21:40.415Z,99496.53
2023-02-22T09:24:10.728Z,99490.03
2023-02-22T09:26:39.508Z,99490.56
2023-02-22T09:29:12.086Z,99485.81
2023-02-22T09:31:40.505Z,99486.25
2023-02-22T09:34:17.186Z,99481.41
2023-02-22T09:36:46.167Z,99478.38
2023-02-22T09:39:15.304Z,99477.84
2023-02-22T09:41:44.365Z,99480.91
2023-02-22T09:44:19.859Z,99478.91
2023-02-22T09:46:48.489Z,99473.94
2023-02-22T09:49:25.105Z,99482.53
2023-02-22T09:52:16.925Z,99476.91
2023-02-22T09:54:51.929Z,99480.59
2023-02-22T09:57:28.582Z,99482.09
2023-02-22T10:00:14.651Z,99480.16
2023-02-22T10:02:54.332Z,99484.06
2023-02-22T10:05:29.695Z,99481.09
2023-02-22T10:08:05.808Z,99477.19
2023-02-22T10:10:37.062Z,99483.94
2023-02-22T10:13:22.454Z,99477.94
2023-02-22T10:16:20.996Z,99485.09
2023-02-22T10:19:11.717Z,99483.63
2023-02-22T10:21:47.516Z,99479.50
2023-02-22T10:24:38.474Z,99480.06
2023-02-22T10:27:19.034Z,99483.25
2023-02-22T10:29:59.389Z,99474.06
2023-02-22T10:32:35.588Z,99474.50
2023-02-22T10:35:05.507Z,99471.22
2023-02-22T10:37:34.322Z,99459.06
2023-02-22T10:40:17.284Z,99461.91
2023-02-22T10:42:44.258Z,99465.63
2023-02-22T10:45:34.679Z,99466.34
2023-02-22T10:48:08.543Z,99464.78
2023-02-22T10:50:38.160Z,99466.97
2023-02-22T10:53:04.658Z,99459.47
2023-02-22T10:55:31.425Z,99458.38
2023-02-22T10:58:04.826Z,99451.22
2023-02-22T11:00:37.254Z,99456.06
2023-02-22T11:03:17.664Z,99447.56
2023-02-22T11:05:44.870Z,99449.34
2023-02-22T11:08:29.293Z,99447.84
2023-02-22T11:14:42.751Z,99451.91
2023-02-22T11:17:14.539Z,99442.09
2023-02-22T11:19:47.733Z,99439.28
2023-02-22T11:22:22.502Z,99437.16
2023-02-22T11:24:57.923Z,99434.16
2023-02-22T11:27:38.073Z,99433.06
2023-02-22T11:30:18.457Z,99423.94
2023-02-22T11:32:47.712Z,99422.59
2023-02-22T11:35:50.561Z,99422.03
2023-02-22T11:38:24.961Z,99416.47
2023-02-22T11:41:16.747Z,99416.59
2023-02-22T11:43:45.788Z,99410.19
2023-02-22T11:46:30.225Z,99399.19
2023-02-22T11:49:10.686Z,99404.47
2023-02-22T11:51:49.612Z,99406.47
2023-02-22T11:54:32.867Z,99402.72
2023-02-22T11:57:17.626Z,99392.44
2023-02-22T11:59:55.838Z,99396.41
2023-02-22T12:02:37.415Z,99391.94
2023-02-22T12:05:08.311Z,99394.81
2023-02-22T12:08:19.394Z,99393.69
2023-02-22T12:11:03.990Z,99393.25
2023-02-22T12:13:42.083Z,99388.31
2023-02-22T12:16:17.898Z,99386.78
2023-02-22T12:19:03.339Z,99382.81
2023-02-22T12:21:32.070Z,99386.06
2023-02-22T12:24:14.481Z,99379.66
2023-02-22T12:26:44.087Z,99376.63
2023-02-22T12:29:37.614Z,99378.63
2023-02-22T12:32:14.255Z,99372.53
2023-02-22T12:34:45.602Z,99370.41
2023-02-22T12:37:29.246Z,99364.75
2023-02-22T12:39:55.713Z,99363.38
2023-02-22T12:42:55.930Z,99360.69
2023-02-22T12:45:37.003Z,99357.63
2023-02-22T12:48:40.149Z,99348.00
2023-02-22T12:51:21.602Z,99357.69
2023-02-22T12:54:06.558Z,99342.16
2023-02-22T12:56:49.484Z,99352.97
2023-02-22T12:59:27.354Z,99352.31
2023-02-22T13:01:59.603Z,99344.34
2023-02-22T13:04:26.542Z,99359.88
2023-02-22T13:06:57.715Z,99351.16
2023-02-22T13:09:48.676Z,99358.53
2023-02-22T13:12:36.282Z,99349.81
2023-02-22T13:15:17.916Z,99354.03
2023-02-22T13:17:52.366Z,99347.25
2023-02-22T13:20:29.988Z,99342.81
2023-02-22T13:23:38.908Z,99341.88
2023-02-22T13:26:30.395Z,99338.53
2023-02-22T13:29:10.716Z,99341.34
2023-02-22T13:32:12.764Z,99338.16
2023-02-22T13:34:59.988Z,99334.53
2023-02-22T13:37:58.370Z,99336.44
2023-02-22T13:40:44.634Z,99342.78
2023-02-22T13:43:42.221Z,99338.75
2023-02-22T13:46:22.410Z,99336.56
2023-02-22T13:48:57.746Z,99339.94
2023-02-22T13:51:51.561Z,99331.03
2023-02-22T13:54:24.898Z,99330.63
2023-02-22T13:56:53.646Z,99330.50
2023-02-22T13:59:36.060Z,99323.53
2023-02-22T14:03:09.526Z,99318.75
2023-02-22T14:05:42.470Z,99322.13
2023-02-22T14:08:38.557Z,99324.06
2023-02-22T14:11:33.601Z,99324.38
2023-02-22T14:14:02.768Z,99323.13
2023-02-22T14:16:34.021Z,99325.19
2023-02-22T14:19:09.702Z,99323.66
2023-02-22T14:21:36.527Z,99319.59
2023-02-22T14:24:12.670Z,99320.47
2023-02-22T14:26:40.772Z,99324.50
2023-02-22T14:29:07.877Z,99325.19
2023-02-22T14:31:43.563Z,99318.19
2023-02-22T14:34:22.600Z,99317.34
2023-02-22T14:36:50.888Z,99314.28
2023-02-22T14:39:39.833Z,99316.53
2023-02-22T14:42:14.521Z,99306.44
2023-02-22T14:45:03.020Z,99313.88
2023-02-22T14:48:01.002Z,99306.03
2023-02-22T14:50:41.609Z,99315.00
2023-02-22T14:53:22.127Z,99310.38
2023-02-22T14:56:06.960Z,99308.69
2023-02-22T14:58:56.418Z,99303.66
2023-02-22T15:04:28.420Z,99304.75
2023-02-22T15:06:56.298Z,99304.75
2023-02-22T15:09:34.656Z,99309.09
2023-02-22T15:12:04.357Z,99310.31
2023-02-22T15:14:37.571Z,99310.59
2023-02-22T15:17:27.639Z,99314.72
2023-02-22T15:19:55.089Z,99302.81
2023-02-22T15:22:27.476Z,99303.63
2023-02-22T15:24:58.851Z,99304.31
2023-02-22T15:27:26.211Z,99304.53
2023-02-22T15:29:59.534Z,99313.03
2023-02-22T15:32:32.319Z,99308.97
2023-02-22T15:35:25.872Z,99304.91
2023-02-22T15:38:00.521Z,99308.25
2023-02-22T15:40:33.025Z,99307.84
2023-02-22T15:43:08.921Z,99307.53
2023-02-22T15:45:42.935Z,99305.88
2023-02-22T15:48:14.595Z,99305.44
2023-02-22T15:51:09.298Z,99310.56
2023-02-22T15:53:41.254Z,99312.22
2023-02-22T15:56:17.978Z,99307.72
2023-02-22T15:58:46.887Z,99315.22
2023-02-22T16:01:22.307Z,99308.19
2023-02-22T16:03:53.065Z,99309.53
2023-02-22T16:06:36.005Z,99310.44
2023-02-22T16:09:25.485Z,99302.97
2023-02-22T16:12:09.452Z,99301.84
2023-02-22T16:14:35.962Z,99310.88
2023-02-22T16:17:25.425Z,99313.56
2023-02-22T16:19:53.124Z,99315.38
2023-02-22T16:22:39.038Z,99318.91
2023-02-22T16:25:17.879Z,99320.13
2023-02-22T16:27:50.268Z,99311.69
2023-02-22T16:30:24.459Z,99313.03
2023-02-22T16:32:54.918Z,99307.16
2023-02-22T16:35:27.956Z,99304.03
2023-02-22T16:37:59.152Z,99307.16
2023-02-22T16:40:38.705Z,99313.66
2023-02-22T16:43:12.534Z,99308.66
2023-02-22T16:45:41.984Z,99310.81
2023-02-22T16:48:16.947Z,99304.44
2023-02-22T16:50:43.446Z,99316.84
2023-02-22T16:53:10.167Z,99312.75
2023-02-22T16:55:36.734Z,99311.31
2023-02-22T16:58:04.816Z,99314.22
2023-02-22T17:00:31.678Z,99310.84
2023-02-22T17:02:59.529Z,99316.50
2023-02-22T17:05:26.072Z,99318.53
2023-02-22T17:07:52.782Z,99315.41
2023-02-22T17:12:58.369Z,99319.66
2023-02-22T17:15:35.672Z,99328.03
2023-02-22T17:18:11.183Z,99323.72
2023-02-22T17:20:37.617Z,99329.13
2023-02-22T17:23:09.134Z,99334.81
2023-02-22T17:25:44.844Z,99332.50
2023-02-22T17:28:12.809Z,99323.72
2023-02-22T17:30:39.939Z,99331.03
2023-02-22T17:33:09.011Z,99335.63
2023-02-22T17:35:38.306Z,99335.00
2023-02-22T17:38:06.660Z,99329.81
2023-02-22T17:40:35.316Z,99335.13
2023-02-22T17:43:02.406Z,99338.63
2023-02-22T17:45:29.525Z,99340.41
2023-02-22T17:47:59.192Z,99336.09
2023-02-22T17:50:27.355Z,99336.09
2023-02-22T17:52:54.087Z,99339.59
2023-02-22T17:55:22.401Z,99342.22
2023-02-22T17:57:58.187Z,99340.41
2023-02-22T18:00:34.024Z,99344.75
2023-02-22T18:03:02.916Z,99339.22
2023-02-22T18:05:35.178Z,99342.59
2023-02-22T18:08:01.705Z,99345.25
2023-02-22T18:10:28.202Z,99350.41
2023-02-22T18:12:56.803Z,99342.38
2023-02-22T18:15:23.446Z,99342.47
2023-02-22T18:17:50.329Z,99347.66
2023-02-22T18:20:30.907Z,99344.16
2023-02-22T18:22:59.444Z,99350.31
2023-02-22T18:25:27.095Z,99350.31
2023-02-22T18:27:55.039Z,99347.66
2023-02-22T18:30:21.982Z,99350.41
2023-02-22T18:32:49.157Z,99348.59
2023-02-22T18:35:15.718Z,99342.47
2023-02-22T18:37:42.572Z,99345.25
2023-02-22T18:40:10.625Z,99347.16
2023-02-22T18:42:39.121Z,99345.56
2023-02-22T18:45:07.422Z,99350.16
2023-02-22T18:47:44.043Z,99346.19
2023-02-22T18:50:11.592Z,99346.06
2023-02-22T18:52:44.887Z,99342.69
2023-02-22T18:55:13.560Z,99341.13
2023-02-22T18:57:40.396Z,99347.38
2023-02-22T19:00:09.113Z,99344.84
2023-02-22T19:02:35.676Z,99342.31
2023-02-22T19:05:03.793Z,99347.72
2023-02-22T19:07:30.270Z,99344.34
2023-02-22T19:09:56.806Z,99347.00
2023-02-22T19:12:24.476Z,99347.94
2023-02-22T19:14:53.613Z,99348.16
2023-02-22T19:17:21.466Z,99348.16
2023-02-22T19:19:48.553Z,99350.91
2023-02-22T19:22:15.219Z,99343.94
2023-02-22T19:24:45.351Z,99344.16
2023-02-22T19:27:13.667Z,99345.84
2023-02-22T19:29:40.661Z,99341.53
2023-02-22T19:32:08.946Z,99339.00
2023-02-22T19:34:37.062Z,99345.25
2023-02-22T19:37:05.358Z,99348.97
2023-02-22T19:39:33.536Z,99357.84
2023-02-22T19:42:00.449Z,99350.91
2023-02-22T19:44:28.140Z,99348.47
2023-02-22T19:46:57.589Z,99347.72
2023-02-22T19:51:54.173Z,99341.72
2023-02-22T19:54:22.089Z,99348.91
2023-02-22T19:56:51.659Z,99344.59
2023-02-22T19:59:22.847Z,99337.75
2023-02-22T20:01:52.638Z,99350.25
2023-02-22T20:04:21.520Z,99354.66
2023-02-22T20:06:54.581Z,99349.59
2023-02-22T20:09:24.674Z,99356.72
2023-02-22T20:11:53.994Z,99350.69
2023-02-22T20:14:23.951Z,99361.47
2023-02-22T20:16:51.717Z,99358.00
2023-02-22T20:19:18.367Z,99362.44
2023-02-22T20:21:45.108Z,99358.22
2023-02-22T20:24:15.023Z,99359.28
2023-02-22T20:26:42.426Z,99371.75
2023-02-22T20:29:10.137Z,99371.91
2023-02-22T20:31:38.394Z,99370.31
2023-02-22T20:34:09.746Z,99362.63
2023-02-22T20:36:38.515Z,99374.25
2023-02-22T20:39:13.250Z,99368.34
2023-02-22T20:41:42.499Z,99371.22
2023-02-22T20:44:13.537Z,99368.78
2023-02-22T20:46:40.146Z,99380.53
2023-02-22T20:49:08.944Z,99380.84
2023-02-22T20:51:35.685Z,99381.09
2023-02-22T20:54:03.062Z,99390.19
2023-02-22T20:56:31.378Z,99387.13
2023-02-22T20:59:00.872Z,99386.50
2023-02-22T21:01:28.020Z,99394.75
2023-02-22T21:03:54.776Z,99385.38
2023-02-22T21:06:22.161Z,99381.38
2023-02-22T21:08:54.348Z,99382.63
2023-02-22T21:11:22.580Z,99390.66
2023-02-22T21:13:49.362Z,99390.03
2023-02-22T21:16:22.608Z,99392.88
2023-02-22T21:18:54.026Z,99402.09
2023-02-22T21:21:21.398Z,99395.09
2023-02-22T21:23:50.420Z,99395.44
2023-02-22T21:26:19.408Z,99392.16
2023-02-22T21:28:51.432Z,99396.72
2023-02-22T21:31:20.294Z,99394.25
2023-02-22T21:33:53.019Z,99394.44
2023-02-22T21:36:20.646Z,99390.34
2023-02-22T21:38:53.227Z,99391.38
2023-02-22T21:41:21.595Z,99391.72
2023-02-22T21:43:51.866Z,99390.25
2023-02-22T21:46:19.183Z,99394.75
2023-02-22T21:48:48.894Z,99396.66
2023-02-22T21:51:21.178Z,99396.03
2023-02-22T21:53:51.986Z,99392.66
2023-02-22T21:56:23.626Z,99390.13
2023-02-22T21:59:02.853Z,99396.53
2023-02-22T22:01:34.523Z,99393.19
2023-02-22T22:04:02.672Z,99393.38
2023-02-22T22:06:30.943Z,99389.06
2023-02-22T22:08:59.953Z,99390.13
2023-02-22T22:11:26.806Z,99396.44
2023-02-22T22:13:57.701Z,99386.09
2023-02-22T22:16:27.171Z,99389.59
2023-02-22T22:18:55.126Z,99393.16
2023-02-22T22:21:23.896Z,99398.41
2023-02-22T22:23:54.453Z,99394.09
2023-02-22T22:26:24.422Z,99395.69
2023-02-22T22:28:54.018Z,99394.84
2023-02-22T22:31:23.477Z,99400.00
2023-02-22T22:33:50.366Z,99396.44
2023-02-22T22:36:19.050Z,99399.06
2023-02-22T22:38:48.684Z,99398.13
2023-02-22T22:41:17.980Z,99391.91
2023-02-22T22:43:46.071Z,99398.84
2023-02-22T22:46:14.763Z,99400.56
2023-02-22T22:48:41.283Z,99405.84
2023-02-22T22:51:14.473Z,99398.84
2023-02-22T22:53:44.000Z,99403.19
2023-02-22T22:56:19.177Z,99402.25
2023-02-22T22:58:51.452Z,99404.88
2023-02-22T23:01:26.771Z,99407.19
2023-02-22T23:04:01.570Z,99411.63
2023-02-22T23:06:34.174Z,99410.78
2023-02-22T23:09:13.085Z,99397.59
2023-02-22T23:14:20.770Z,99408.13
2023-02-22T23:16:53.567Z,99416.28
2023-02-22T23:19:20.308Z,99411.84
2023-02-22T23:21:48.756Z,99417.19
2023-02-22T23:24:18.865Z,99416.38
2023-02-22T23:26:48.794Z,99418.06
2023-02-22T23:29:21.030Z,99412.25
2023-02-22T23:31:49.426Z,99420.91
2023-02-22T23:34:23.002Z,99420.16
2023-02-22T23:36:54.205Z,99423.72
2023-02-22T23:39:22.277Z,99427.31
2023-02-22T23:41:53.694Z,99432.81
2023-02-22T23:44:21.529Z,99428.38
2023-02-22T23:46:49.697Z,99426.78
2023-02-22T23:49:20.458Z,99430.38
2023-02-22T23:51:47.963Z,99436.59
2023-02-22T23:54:16.810Z,99441.09
2023-02-22T23:56:47.290Z,99438.47
2023-02-22T23:59:14.541Z,99442.88
